sensor_id;sensor_type;location;lat;lon;timestamp;temperature;humidity
4356;DHT22;2191;51.482;7.408;2022-09-03T00:00:21;22.50;84.20
4356;DHT22;2191;51.482;7.408;2022-09-03T00:02:59;22.40;84.60
4356;DHT22;2191;51.482;7.408;2022-09-03T00:05:36;22.50;85.20
4356;DHT22;2191;51.482;7.408;2022-09-03T00:08:10;22.50;84.60
4356;DHT22;2191;51.482;7.408;2022-09-03T00:10:45;22.40;84.90
4356;DHT22;2191;51.482;7.408;2022-09-03T00:13:21;22.40;84.60
4356;DHT22;2191;51.482;7.408;2022-09-03T00:15:50;22.50;85.10
4356;DHT22;2191;51.482;7.408;2022-09-03T00:18:24;22.40;85.40
4356;DHT22;2191;51.482;7.408;2022-09-03T00:20:58;22.40;85.20
4356;DHT22;2191;51.482;7.408;2022-09-03T00:23:36;22.40;85.10
4356;DHT22;2191;51.482;7.408;2022-09-03T00:26:15;22.30;84.90
4356;DHT22;2191;51.482;7.408;2022-09-03T00:28:52;22.30;84.80
4356;DHT22;2191;51.482;7.408;2022-09-03T00:31:29;22.20;85.20
4356;DHT22;2191;51.482;7.408;2022-09-03T00:34:02;22.20;85.00
4356;DHT22;2191;51.482;7.408;2022-09-03T00:36:36;22.30;84.60
4356;DHT22;2191;51.482;7.408;2022-09-03T00:39:16;22.20;85.60
4356;DHT22;2191;51.482;7.408;2022-09-03T00:41:57;22.20;85.50
4356;DHT22;2191;51.482;7.408;2022-09-03T00:47:31;22.20;85.90
4356;DHT22;2191;51.482;7.408;2022-09-03T00:50:07;22.30;85.80
4356;DHT22;2191;51.482;7.408;2022-09-03T00:52:56;22.10;86.30
4356;DHT22;2191;51.482;7.408;2022-09-03T00:55:38;22.10;85.50
4356;DHT22;2191;51.482;7.408;2022-09-03T00:58:31;22.10;86.30
4356;DHT22;2191;51.482;7.408;2022-09-03T01:01:09;22.10;86.00
4356;DHT22;2191;51.482;7.408;2022-09-03T01:03:46;22.10;87.10
4356;DHT22;2191;51.482;7.408;2022-09-03T01:06:38;22.10;86.30
4356;DHT22;2191;51.482;7.408;2022-09-03T01:09:19;21.90;86.50
4356;DHT22;2191;51.482;7.408;2022-09-03T01:11:58;21.80;86.70
4356;DHT22;2191;51.482;7.408;2022-09-03T01:14:50;21.90;86.80
4356;DHT22;2191;51.482;7.408;2022-09-03T01:17:31;21.80;86.80
4356;DHT22;2191;51.482;7.408;2022-09-03T01:20:21;21.90;87.00
4356;DHT22;2191;51.482;7.408;2022-09-03T01:23:21;21.90;86.50
4356;DHT22;2191;51.482;7.408;2022-09-03T01:26:02;21.80;86.50
4356;DHT22;2191;51.482;7.408;2022-09-03T01:28:43;21.90;87.10
4356;DHT22;2191;51.482;7.408;2022-09-03T01:31:23;21.80;87.30
4356;DHT22;2191;51.482;7.408;2022-09-03T01:34:02;21.70;86.90
4356;DHT22;2191;51.482;7.408;2022-09-03T01:36:37;21.90;86.80
4356;DHT22;2191;51.482;7.408;2022-09-03T01:39:16;21.90;86.50
4356;DHT22;2191;51.482;7.408;2022-09-03T01:41:53;22.00;86.70
4356;DHT22;2191;51.482;7.408;2022-09-03T01:44:59;21.90;86.70
4356;DHT22;2191;51.482;7.408;2022-09-03T01:47:41;21.80;86.50
4356;DHT22;2191;51.482;7.408;2022-09-03T01:50:22;21.80;86.80
4356;DHT22;2191;51.482;7.408;2022-09-03T01:52:58;21.90;86.90
4356;DHT22;2191;51.482;7.408;2022-09-03T01:55:43;21.90;87.10
4356;DHT22;2191;51.482;7.408;2022-09-03T01:58:17;21.80;86.80
4356;DHT22;2191;51.482;7.408;2022-09-03T02:00:53;21.90;86.70
4356;DHT22;2191;51.482;7.408;2022-09-03T02:03:24;21.80;87.20
4356;DHT22;2191;51.482;7.408;2022-09-03T02:05:59;21.90;86.70
4356;DHT22;2191;51.482;7.408;2022-09-03T02:08:27;21.90;86.60
4356;DHT22;2191;51.482;7.408;2022-09-03T02:10:57;21.90;87.00
4356;DHT22;2191;51.482;7.408;2022-09-03T02:13:30;21.80;87.10
4356;DHT22;2191;51.482;7.408;2022-09-03T02:16:05;21.90;86.80
4356;DHT22;2191;51.482;7.408;2022-09-03T02:18:37;21.80;87.30
4356;DHT22;2191;51.482;7.408;2022-09-03T02:21:08;22.00;87.30
4356;DHT22;2191;51.482;7.408;2022-09-03T02:23:38;21.90;87.40
4356;DHT22;2191;51.482;7.408;2022-09-03T02:26:09;21.90;87.50
4356;DHT22;2191;51.482;7.408;2022-09-03T02:28:38;22.00;87.10
4356;DHT22;2191;51.482;7.408;2022-09-03T02:31:07;22.00;87.30
4356;DHT22;2191;51.482;7.408;2022-09-03T02:33:39;21.90;86.80
4356;DHT22;2191;51.482;7.408;2022-09-03T02:36:10;21.80;87.30
4356;DHT22;2191;51.482;7.408;2022-09-03T02:38:40;21.90;87.40
4356;DHT22;2191;51.482;7.408;2022-09-03T02:41:16;21.80;87.30
4356;DHT22;2191;51.482;7.408;2022-09-03T02:43:54;21.90;87.40
4356;DHT22;2191;51.482;7.408;2022-09-03T02:46:30;21.90;87.10
4356;DHT22;2191;51.482;7.408;2022-09-03T02:48:59;21.90;87.10
4356;DHT22;2191;51.482;7.408;2022-09-03T02:51:31;21.90;87.10
4356;DHT22;2191;51.482;7.408;2022-09-03T02:54:00;21.90;87.00
4356;DHT22;2191;51.482;7.408;2022-09-03T02:56:28;21.90;87.00
4356;DHT22;2191;51.482;7.408;2022-09-03T02:58:59;21.90;87.20
4356;DHT22;2191;51.482;7.408;2022-09-03T03:01:33;22.00;86.90
4356;DHT22;2191;51.482;7.408;2022-09-03T03:04:03;21.80;86.60
4356;DHT22;2191;51.482;7.408;2022-09-03T03:06:31;22.00;86.80
4356;DHT22;2191;51.482;7.408;2022-09-03T03:09:01;22.00;87.30
4356;DHT22;2191;51.482;7.408;2022-09-03T03:11:34;21.80;87.60
4356;DHT22;2191;51.482;7.408;2022-09-03T03:14:02;21.70;87.50
4356;DHT22;2191;51.482;7.408;2022-09-03T03:16:32;21.80;88.00
4356;DHT22;2191;51.482;7.408;2022-09-03T03:19:02;21.60;88.20
4356;DHT22;2191;51.482;7.408;2022-09-03T03:21:30;21.70;88.60
4356;DHT22;2191;51.482;7.408;2022-09-03T03:24:00;21.60;88.30
4356;DHT22;2191;51.482;7.408;2022-09-03T03:26:28;21.70;88.30
4356;DHT22;2191;51.482;7.408;2022-09-03T03:28:58;21.60;88.90
4356;DHT22;2191;51.482;7.408;2022-09-03T03:31:29;21.60;89.60
4356;DHT22;2191;51.482;7.408;2022-09-03T03:34:00;21.60;89.30
4356;DHT22;2191;51.482;7.408;2022-09-03T03:36:32;21.60;89.40
4356;DHT22;2191;51.482;7.408;2022-09-03T03:39:00;21.60;89.60
4356;DHT22;2191;51.482;7.408;2022-09-03T03:41:31;21.60;89.50
4356;DHT22;2191;51.482;7.408;2022-09-03T03:44:01;21.40;90.20
4356;DHT22;2191;51.482;7.408;2022-09-03T03:46:31;21.30;90.20
4356;DHT22;2191;51.482;7.408;2022-09-03T03:49:01;21.20;90.40
4356;DHT22;2191;51.482;7.408;2022-09-03T03:51:32;21.20;90.70
4356;DHT22;2191;51.482;7.408;2022-09-03T03:54:00;21.20;90.90
4356;DHT22;2191;51.482;7.408;2022-09-03T03:56:34;21.10;91.00
4356;DHT22;2191;51.482;7.408;2022-09-03T03:59:03;21.20;91.10
4356;DHT22;2191;51.482;7.408;2022-09-03T04:01:33;21.20;91.20
4356;DHT22;2191;51.482;7.408;2022-09-03T04:04:03;21.20;91.30
4356;DHT22;2191;51.482;7.408;2022-09-03T04:06:31;21.20;91.30
4356;DHT22;2191;51.482;7.408;2022-09-03T04:09:02;21.20;91.50
4356;DHT22;2191;51.482;7.408;2022-09-03T04:11:35;21.20;91.30
4356;DHT22;2191;51.482;7.408;2022-09-03T04:14:03;21.20;91.20
4356;DHT22;2191;51.482;7.408;2022-09-03T04:16:31;21.00;91.00
4356;DHT22;2191;51.482;7.408;2022-09-03T04:19:06;20.80;91.30
4356;DHT22;2191;51.482;7.408;2022-09-03T04:21:36;20.70;91.60
4356;DHT22;2191;51.482;7.408;2022-09-03T04:24:05;20.80;91.50
4356;DHT22;2191;51.482;7.408;2022-09-03T04:26:35;20.80;91.50
4356;DHT22;2191;51.482;7.408;2022-09-03T04:29:04;20.80;91.60
4356;DHT22;2191;51.482;7.408;2022-09-03T04:31:33;20.90;91.60
4356;DHT22;2191;51.482;7.408;2022-09-03T04:34:01;20.70;91.70
4356;DHT22;2191;51.482;7.408;2022-09-03T04:36:33;20.80;91.90
4356;DHT22;2191;51.482;7.408;2022-09-03T04:39:03;20.90;91.90
4356;DHT22;2191;51.482;7.408;2022-09-03T04:41:31;20.70;92.00
4356;DHT22;2191;51.482;7.408;2022-09-03T04:43:59;20.80;92.00
4356;DHT22;2191;51.482;7.408;2022-09-03T04:46:28;20.80;92.10
4356;DHT22;2191;51.482;7.408;2022-09-03T04:49:06;20.90;92.00
4356;DHT22;2191;51.482;7.408;2022-09-03T04:51:36;21.00;91.90
4356;DHT22;2191;51.482;7.408;2022-09-03T04:54:04;20.80;92.10
4356;DHT22;2191;51.482;7.408;2022-09-03T04:56:33;20.80;92.10
4356;DHT22;2191;51.482;7.408;2022-09-03T04:59:04;20.80;92.30
4356;DHT22;2191;51.482;7.408;2022-09-03T05:01:36;20.90;92.20
4356;DHT22;2191;51.482;7.408;2022-09-03T05:04:05;20.90;92.30
4356;DHT22;2191;51.482;7.408;2022-09-03T05:06:38;20.80;92.40
4356;DHT22;2191;51.482;7.408;2022-09-03T05:09:06;20.80;92.70
4356;DHT22;2191;51.482;7.408;2022-09-03T05:11:34;20.90;92.50
4356;DHT22;2191;51.482;7.408;2022-09-03T05:14:04;20.90;92.30
4356;DHT22;2191;51.482;7.408;2022-09-03T05:16:32;20.70;92.50
4356;DHT22;2191;51.482;7.408;2022-09-03T05:19:03;20.70;92.70
4356;DHT22;2191;51.482;7.408;2022-09-03T05:21:35;20.70;92.80
4356;DHT22;2191;51.482;7.408;2022-09-03T05:24:04;20.70;92.70
4356;DHT22;2191;51.482;7.408;2022-09-03T05:26:37;20.60;92.90
4356;DHT22;2191;51.482;7.408;2022-09-03T05:29:06;20.70;93.00
4356;DHT22;2191;51.482;7.408;2022-09-03T05:31:38;20.50;93.10
4356;DHT22;2191;51.482;7.408;2022-09-03T05:34:07;20.50;93.40
4356;DHT22;2191;51.482;7.408;2022-09-03T05:36:44;20.70;93.40
4356;DHT22;2191;51.482;7.408;2022-09-03T05:39:17;20.70;93.00
4356;DHT22;2191;51.482;7.408;2022-09-03T05:41:51;20.60;93.20
4356;DHT22;2191;51.482;7.408;2022-09-03T05:44:19;20.50;93.30
4356;DHT22;2191;51.482;7.408;2022-09-03T05:46:54;20.60;93.60
4356;DHT22;2191;51.482;7.408;2022-09-03T05:49:22;20.70;93.60
4356;DHT22;2191;51.482;7.408;2022-09-03T05:51:54;20.60;93.80
4356;DHT22;2191;51.482;7.408;2022-09-03T05:54:23;20.70;94.20
4356;DHT22;2191;51.482;7.408;2022-09-03T05:56:52;20.80;94.30
4356;DHT22;2191;51.482;7.408;2022-09-03T05:59:25;20.80;94.30
4356;DHT22;2191;51.482;7.408;2022-09-03T06:01:53;20.90;94.50
4356;DHT22;2191;51.482;7.408;2022-09-03T06:04:25;21.00;94.60
4356;DHT22;2191;51.482;7.408;2022-09-03T06:06:55;20.90;94.50
4356;DHT22;2191;51.482;7.408;2022-09-03T06:09:23;20.80;94.90
4356;DHT22;2191;51.482;7.408;2022-09-03T06:11:54;20.70;94.90
4356;DHT22;2191;51.482;7.408;2022-09-03T06:14:23;20.80;94.80
4356;DHT22;2191;51.482;7.408;2022-09-03T06:16:51;20.90;94.90
4356;DHT22;2191;51.482;7.408;2022-09-03T06:19:20;21.00;95.10
4356;DHT22;2191;51.482;7.408;2022-09-03T06:21:48;21.10;95.20
4356;DHT22;2191;51.482;7.408;2022-09-03T06:24:22;21.00;95.60
4356;DHT22;2191;51.482;7.408;2022-09-03T06:26:54;21.00;95.40
4356;DHT22;2191;51.482;7.408;2022-09-03T06:29:22;21.10;95.20
4356;DHT22;2191;51.482;7.408;2022-09-03T06:31:50;21.10;95.20
4356;DHT22;2191;51.482;7.408;2022-09-03T06:34:20;21.10;95.10
4356;DHT22;2191;51.482;7.408;2022-09-03T06:36:54;21.20;95.00
4356;DHT22;2191;51.482;7.408;2022-09-03T06:39:24;21.40;95.40
4356;DHT22;2191;51.482;7.408;2022-09-03T06:41:53;21.20;95.50
4356;DHT22;2191;51.482;7.408;2022-09-03T06:44:23;21.30;96.40
4356;DHT22;2191;51.482;7.408;2022-09-03T06:46:51;21.30;96.10
4356;DHT22;2191;51.482;7.408;2022-09-03T06:49:19;21.40;96.60
4356;DHT22;2191;51.482;7.408;2022-09-03T06:51:51;21.50;96.60
4356;DHT22;2191;51.482;7.408;2022-09-03T06:54:23;21.50;96.30
4356;DHT22;2191;51.482;7.408;2022-09-03T06:56:51;21.60;96.40
4356;DHT22;2191;51.482;7.408;2022-09-03T06:59:22;21.70;95.80
4356;DHT22;2191;51.482;7.408;2022-09-03T07:01:50;21.70;96.40
4356;DHT22;2191;51.482;7.408;2022-09-03T07:04:18;21.90;96.60
4356;DHT22;2191;51.482;7.408;2022-09-03T07:06:50;22.00;96.10
4356;DHT22;2191;51.482;7.408;2022-09-03T07:09:18;21.90;96.10
4356;DHT22;2191;51.482;7.408;2022-09-03T07:11:47;22.00;96.00
4356;DHT22;2191;51.482;7.408;2022-09-03T07:14:16;22.10;95.90
4356;DHT22;2191;51.482;7.408;2022-09-03T07:16:48;22.20;96.20
4356;DHT22;2191;51.482;7.408;2022-09-03T07:19:16;22.30;96.00
4356;DHT22;2191;51.482;7.408;2022-09-03T07:21:47;22.30;95.80
4356;DHT22;2191;51.482;7.408;2022-09-03T07:24:17;22.20;95.60
4356;DHT22;2191;51.482;7.408;2022-09-03T07:26:49;22.30;96.00
4356;DHT22;2191;51.482;7.408;2022-09-03T07:29:17;22.30;95.90
4356;DHT22;2191;51.482;7.408;2022-09-03T07:31:48;22.40;96.40
4356;DHT22;2191;51.482;7.408;2022-09-03T07:34:19;22.40;96.60
4356;DHT22;2191;51.482;7.408;2022-09-03T07:36:49;22.50;96.60
4356;DHT22;2191;51.482;7.408;2022-09-03T07:39:18;22.60;96.40
4356;DHT22;2191;51.482;7.408;2022-09-03T07:41:47;22.60;96.10
4356;DHT22;2191;51.482;7.408;2022-09-03T07:44:18;22.70;96.40
4356;DHT22;2191;51.482;7.408;2022-09-03T07:46:47;22.80;96.20
4356;DHT22;2191;51.482;7.408;2022-09-03T07:49:28;22.90;96.40
4356;DHT22;2191;51.482;7.408;2022-09-03T07:51:58;22.90;96.50
4356;DHT22;2191;51.482;7.408;2022-09-03T07:54:26;22.80;96.60
4356;DHT22;2191;51.482;7.408;2022-09-03T07:56:58;22.90;96.60
4356;DHT22;2191;51.482;7.408;2022-09-03T07:59:26;22.90;96.20
4356;DHT22;2191;51.482;7.408;2022-09-03T08:01:57;23.00;96.30
4356;DHT22;2191;51.482;7.408;2022-09-03T08:04:25;23.10;96.50
4356;DHT22;2191;51.482;7.408;2022-09-03T08:06:53;23.20;96.60
4356;DHT22;2191;51.482;7.408;2022-09-03T08:09:22;23.20;96.60
4356;DHT22;2191;51.482;7.408;2022-09-03T08:11:53;23.30;96.90
4356;DHT22;2191;51.482;7.408;2022-09-03T08:14:22;23.40;96.80
4356;DHT22;2191;51.482;7.408;2022-09-03T08:16:50;23.40;96.70
4356;DHT22;2191;51.482;7.408;2022-09-03T08:19:18;23.30;95.80
4356;DHT22;2191;51.482;7.408;2022-09-03T08:21:46;23.20;96.20
4356;DHT22;2191;51.482;7.408;2022-09-03T08:24:15;23.30;95.90
4356;DHT22;2191;51.482;7.408;2022-09-03T08:26:43;23.40;95.90
4356;DHT22;2191;51.482;7.408;2022-09-03T08:29:18;23.30;95.40
4356;DHT22;2191;51.482;7.408;2022-09-03T08:31:48;23.50;95.30
4356;DHT22;2191;51.482;7.408;2022-09-03T08:34:17;23.60;95.80
4356;DHT22;2191;51.482;7.408;2022-09-03T08:36:46;23.70;94.80
4356;DHT22;2191;51.482;7.408;2022-09-03T08:39:14;23.70;95.30
4356;DHT22;2191;51.482;7.408;2022-09-03T08:42:06;23.70;94.40
4356;DHT22;2191;51.482;7.408;2022-09-03T08:44:42;23.80;94.40
4356;DHT22;2191;51.482;7.408;2022-09-03T08:47:18;23.90;94.80
4356;DHT22;2191;51.482;7.408;2022-09-03T08:49:55;24.00;95.10
4356;DHT22;2191;51.482;7.408;2022-09-03T08:52:31;23.90;95.20
4356;DHT22;2191;51.482;7.408;2022-09-03T08:57:55;24.00;95.10
4356;DHT22;2191;51.482;7.408;2022-09-03T09:00:39;24.10;95.20
4356;DHT22;2191;51.482;7.408;2022-09-03T09:03:36;24.10;95.00
4356;DHT22;2191;51.482;7.408;2022-09-03T09:06:16;24.20;95.20
4356;DHT22;2191;51.482;7.408;2022-09-03T09:08:58;24.30;94.50
4356;DHT22;2191;51.482;7.408;2022-09-03T09:11:45;24.30;94.80
4356;DHT22;2191;51.482;7.408;2022-09-03T09:14:21;24.50;94.90
4356;DHT22;2191;51.482;7.408;2022-09-03T09:17:00;24.50;94.80
4356;DHT22;2191;51.482;7.408;2022-09-03T09:19:47;24.60;94.80
4356;DHT22;2191;51.482;7.408;2022-09-03T09:22:25;24.60;94.50
4356;DHT22;2191;51.482;7.408;2022-09-03T09:24:57;24.60;94.60
4356;DHT22;2191;51.482;7.408;2022-09-03T09:27:28;24.80;95.90
4356;DHT22;2191;51.482;7.408;2022-09-03T09:30:03;24.80;95.00
4356;DHT22;2191;51.482;7.408;2022-09-03T09:32:35;24.90;94.70
4356;DHT22;2191;51.482;7.408;2022-09-03T09:35:08;25.00;94.10
4356;DHT22;2191;51.482;7.408;2022-09-03T09:37:46;25.00;94.40
4356;DHT22;2191;51.482;7.408;2022-09-03T09:40:23;25.10;94.30
4356;DHT22;2191;51.482;7.408;2022-09-03T09:43:06;25.10;93.80
4356;DHT22;2191;51.482;7.408;2022-09-03T09:45:39;25.20;94.50
4356;DHT22;2191;51.482;7.408;2022-09-03T09:48:20;25.30;94.00
4356;DHT22;2191;51.482;7.408;2022-09-03T09:51:09;25.20;93.00
4356;DHT22;2191;51.482;7.408;2022-09-03T09:53:38;25.20;93.80
4356;DHT22;2191;51.482;7.408;2022-09-03T09:56:06;25.30;93.90
4356;DHT22;2191;51.482;7.408;2022-09-03T09:58:35;24.90;92.90
4356;DHT22;2191;51.482;7.408;2022-09-03T10:01:17;24.60;93.60
4356;DHT22;2191;51.482;7.408;2022-09-03T10:03:51;24.80;93.30
4356;DHT22;2191;51.482;7.408;2022-09-03T10:06:25;25.00;94.50
4356;DHT22;2191;51.482;7.408;2022-09-03T10:09:13;25.30;94.20
4356;DHT22;2191;51.482;7.408;2022-09-03T10:11:43;25.60;93.60
4356;DHT22;2191;51.482;7.408;2022-09-03T10:14:19;25.70;93.70
4356;DHT22;2191;51.482;7.408;2022-09-03T10:16:54;25.80;93.60
4356;DHT22;2191;51.482;7.408;2022-09-03T10:19:30;25.90;93.30
4356;DHT22;2191;51.482;7.408;2022-09-03T10:22:11;25.80;92.90
4356;DHT22;2191;51.482;7.408;2022-09-03T10:24:51;26.10;93.40
4356;DHT22;2191;51.482;7.408;2022-09-03T10:27:25;26.20;93.40
4356;DHT22;2191;51.482;7.408;2022-09-03T10:30:08;26.30;93.40
4356;DHT22;2191;51.482;7.408;2022-09-03T10:32:44;26.40;93.00
4356;DHT22;2191;51.482;7.408;2022-09-03T10:35:25;26.10;92.20
4356;DHT22;2191;51.482;7.408;2022-09-03T10:38:07;26.20;93.00
4356;DHT22;2191;51.482;7.408;2022-09-03T10:40:39;26.30;91.90
4356;DHT22;2191;51.482;7.408;2022-09-03T10:43:29;26.20;91.80
4356;DHT22;2191;51.482;7.408;2022-09-03T10:46:10;26.30;92.70
4356;DHT22;2191;51.482;7.408;2022-09-03T10:51:32;26.10;91.40
4356;DHT22;2191;51.482;7.408;2022-09-03T10:54:37;26.40;92.60
4356;DHT22;2191;51.482;7.408;2022-09-03T10:57:18;26.50;92.50
4356;DHT22;2191;51.482;7.408;2022-09-03T11:00:01;26.60;92.20
4356;DHT22;2191;51.482;7.408;2022-09-03T11:02:42;26.60;92.00
4356;DHT22;2191;51.482;7.408;2022-09-03T11:05:19;26.50;91.50
4356;DHT22;2191;51.482;7.408;2022-09-03T11:07:51;26.50;91.90
4356;DHT22;2191;51.482;7.408;2022-09-03T11:10:30;26.70;92.40
4356;DHT22;2191;51.482;7.408;2022-09-03T11:13:04;26.90;91.90
4356;DHT22;2191;51.482;7.408;2022-09-03T11:15:38;27.00;92.00
4356;DHT22;2191;51.482;7.408;2022-09-03T11:18:15;26.90;92.00
4356;DHT22;2191;51.482;7.408;2022-09-03T11:20:48;26.90;91.10
4356;DHT22;2191;51.482;7.408;2022-09-03T11:23:21;26.60;91.40
4356;DHT22;2191;51.482;7.408;2022-09-03T11:25:59;26.70;91.30
4356;DHT22;2191;51.482;7.408;2022-09-03T11:28:36;26.90;91.50
4356;DHT22;2191;51.482;7.408;2022-09-03T11:34:06;27.20;91.90
4356;DHT22;2191;51.482;7.408;2022-09-03T11:36:37;27.10;90.90
4356;DHT22;2191;51.482;7.408;2022-09-03T11:39:14;26.80;91.20
4356;DHT22;2191;51.482;7.408;2022-09-03T11:41:57;27.00;92.10
4356;DHT22;2191;51.482;7.408;2022-09-03T11:44:35;27.20;91.40
4356;DHT22;2191;51.482;7.408;2022-09-03T11:47:21;27.20;91.20
4356;DHT22;2191;51.482;7.408;2022-09-03T11:49:51;26.70;91.30
4356;DHT22;2191;51.482;7.408;2022-09-03T11:52:26;26.50;91.20
4356;DHT22;2191;51.482;7.408;2022-09-03T11:54:55;26.50;91.60
4356;DHT22;2191;51.482;7.408;2022-09-03T11:57:27;26.80;91.60
4356;DHT22;2191;51.482;7.408;2022-09-03T12:00:07;27.10;91.80
4356;DHT22;2191;51.482;7.408;2022-09-03T12:02:42;27.40;90.90
4356;DHT22;2191;51.482;7.408;2022-09-03T12:05:19;27.40;90.50
4356;DHT22;2191;51.482;7.408;2022-09-03T12:10:46;26.50;90.30
4356;DHT22;2191;51.482;7.408;2022-09-03T12:13:34;26.90;91.20
4356;DHT22;2191;51.482;7.408;2022-09-03T12:16:21;26.70;89.80
4356;DHT22;2191;51.482;7.408;2022-09-03T12:18:55;26.70;90.50
4356;DHT22;2191;51.482;7.408;2022-09-03T12:21:36;27.00;90.60
4356;DHT22;2191;51.482;7.408;2022-09-03T12:24:05;27.30;90.30
4356;DHT22;2191;51.482;7.408;2022-09-03T12:26:41;26.60;89.70
4356;DHT22;2191;51.482;7.408;2022-09-03T12:29:26;26.70;90.90
4356;DHT22;2191;51.482;7.408;2022-09-03T12:32:06;26.50;90.40
4356;DHT22;2191;51.482;7.408;2022-09-03T12:34:37;26.30;91.20
4356;DHT22;2191;51.482;7.408;2022-09-03T12:37:17;26.40;91.60
4356;DHT22;2191;51.482;7.408;2022-09-03T12:40:16;26.70;91.40
4356;DHT22;2191;51.482;7.408;2022-09-03T12:42:44;26.50;91.40
4356;DHT22;2191;51.482;7.408;2022-09-03T12:45:17;26.70;91.80
4356;DHT22;2191;51.482;7.408;2022-09-03T12:47:48;26.70;91.80
4356;DHT22;2191;51.482;7.408;2022-09-03T12:50:18;27.00;92.10
4356;DHT22;2191;51.482;7.408;2022-09-03T12:52:51;27.30;92.00
4356;DHT22;2191;51.482;7.408;2022-09-03T12:55:27;27.00;91.80
4356;DHT22;2191;51.482;7.408;2022-09-03T12:58:02;27.30;92.50
4356;DHT22;2191;51.482;7.408;2022-09-03T13:00:43;27.70;92.40
4356;DHT22;2191;51.482;7.408;2022-09-03T13:03:19;27.70;92.00
4356;DHT22;2191;51.482;7.408;2022-09-03T13:05:51;27.40;91.60
4356;DHT22;2191;51.482;7.408;2022-09-03T13:08:22;27.10;92.10
4356;DHT22;2191;51.482;7.408;2022-09-03T13:10:53;26.90;92.20
4356;DHT22;2191;51.482;7.408;2022-09-03T13:13:24;26.90;92.40
4356;DHT22;2191;51.482;7.408;2022-09-03T13:16:28;26.90;92.90
4356;DHT22;2191;51.482;7.408;2022-09-03T13:19:05;27.10;93.20
4356;DHT22;2191;51.482;7.408;2022-09-03T13:21:43;27.30;93.30
4356;DHT22;2191;51.482;7.408;2022-09-03T13:24:26;27.50;93.50
4356;DHT22;2191;51.482;7.408;2022-09-03T13:27:05;27.50;93.30
4356;DHT22;2191;51.482;7.408;2022-09-03T13:29:50;27.80;93.70
4356;DHT22;2191;51.482;7.408;2022-09-03T13:32:34;28.10;93.40
4356;DHT22;2191;51.482;7.408;2022-09-03T13:35:07;28.10;92.80
4356;DHT22;2191;51.482;7.408;2022-09-03T13:37:44;28.20;93.40
4356;DHT22;2191;51.482;7.408;2022-09-03T13:40:17;28.10;92.40
4356;DHT22;2191;51.482;7.408;2022-09-03T13:42:52;28.30;92.90
4356;DHT22;2191;51.482;7.408;2022-09-03T13:45:29;28.30;93.20
4356;DHT22;2191;51.482;7.408;2022-09-03T13:48:06;28.40;93.00
4356;DHT22;2191;51.482;7.408;2022-09-03T13:51:02;28.40;92.80
4356;DHT22;2191;51.482;7.408;2022-09-03T13:53:41;28.40;93.10
4356;DHT22;2191;51.482;7.408;2022-09-03T13:56:22;28.70;93.00
4356;DHT22;2191;51.482;7.408;2022-09-03T13:58:59;28.90;92.60
4356;DHT22;2191;51.482;7.408;2022-09-03T14:01:44;29.00;92.60
4356;DHT22;2191;51.482;7.408;2022-09-03T14:04:28;29.00;92.30
4356;DHT22;2191;51.482;7.408;2022-09-03T14:07:05;29.10;92.50
4356;DHT22;2191;51.482;7.408;2022-09-03T14:09:40;28.60;92.30
4356;DHT22;2191;51.482;7.408;2022-09-03T14:12:14;28.70;92.70
4356;DHT22;2191;51.482;7.408;2022-09-03T14:14:51;28.70;92.60
4356;DHT22;2191;51.482;7.408;2022-09-03T14:17:31;28.70;92.70
4356;DHT22;2191;51.482;7.408;2022-09-03T14:20:10;28.70;92.20
4356;DHT22;2191;51.482;7.408;2022-09-03T14:22:49;28.80;91.90
4356;DHT22;2191;51.482;7.408;2022-09-03T14:25:22;29.00;92.10
4356;DHT22;2191;51.482;7.408;2022-09-03T14:27:50;28.90;91.90
4356;DHT22;2191;51.482;7.408;2022-09-03T14:30:30;29.00;92.30
4356;DHT22;2191;51.482;7.408;2022-09-03T14:33:11;28.80;92.10
4356;DHT22;2191;51.482;7.408;2022-09-03T14:35:57;28.70;92.10
4356;DHT22;2191;51.482;7.408;2022-09-03T14:38:39;28.50;92.00
4356;DHT22;2191;51.482;7.408;2022-09-03T14:44:26;27.70;92.50
4356;DHT22;2191;51.482;7.408;2022-09-03T14:47:14;27.50;92.90
4356;DHT22;2191;51.482;7.408;2022-09-03T14:50:12;27.70;93.30
4356;DHT22;2191;51.482;7.408;2022-09-03T14:53:06;27.80;93.30
4356;DHT22;2191;51.482;7.408;2022-09-03T14:56:11;27.90;93.60
4356;DHT22;2191;51.482;7.408;2022-09-03T14:59:14;27.90;93.40
4356;DHT22;2191;51.482;7.408;2022-09-03T15:02:03;27.90;93.60
4356;DHT22;2191;51.482;7.408;2022-09-03T15:04:48;27.90;93.80
4356;DHT22;2191;51.482;7.408;2022-09-03T15:07:27;27.90;93.70
4356;DHT22;2191;51.482;7.408;2022-09-03T15:10:06;27.90;94.10
4356;DHT22;2191;51.482;7.408;2022-09-03T15:12:42;28.00;94.00
4356;DHT22;2191;51.482;7.408;2022-09-03T15:15:18;28.00;94.40
4356;DHT22;2191;51.482;7.408;2022-09-03T15:17:54;28.10;94.40
4356;DHT22;2191;51.482;7.408;2022-09-03T15:20:32;28.20;94.30
4356;DHT22;2191;51.482;7.408;2022-09-03T15:23:18;27.90;93.70
4356;DHT22;2191;51.482;7.408;2022-09-03T15:26:04;27.70;93.50
4356;DHT22;2191;51.482;7.408;2022-09-03T15:28:49;27.40;94.00
4356;DHT22;2191;51.482;7.408;2022-09-03T15:31:30;27.30;94.10
4356;DHT22;2191;51.482;7.408;2022-09-03T15:34:14;27.50;94.70
4356;DHT22;2191;51.482;7.408;2022-09-03T15:36:49;27.60;95.00
4356;DHT22;2191;51.482;7.408;2022-09-03T15:39:23;27.70;95.20
4356;DHT22;2191;51.482;7.408;2022-09-03T15:41:56;27.70;95.10
4356;DHT22;2191;51.482;7.408;2022-09-03T15:44:27;27.70;95.10
4356;DHT22;2191;51.482;7.408;2022-09-03T15:47:04;27.80;95.40
4356;DHT22;2191;51.482;7.408;2022-09-03T15:49:47;27.80;95.00
4356;DHT22;2191;51.482;7.408;2022-09-03T15:52:29;27.80;95.40
4356;DHT22;2191;51.482;7.408;2022-09-03T15:55:08;27.80;95.30
4356;DHT22;2191;51.482;7.408;2022-09-03T15:57:43;27.80;95.20
4356;DHT22;2191;51.482;7.408;2022-09-03T16:00:17;27.70;95.30
4356;DHT22;2191;51.482;7.408;2022-09-03T16:02:52;27.60;95.50
4356;DHT22;2191;51.482;7.408;2022-09-03T16:05:35;27.60;95.70
4356;DHT22;2191;51.482;7.408;2022-09-03T16:08:11;27.60;95.60
4356;DHT22;2191;51.482;7.408;2022-09-03T16:10:53;27.60;95.50
4356;DHT22;2191;51.482;7.408;2022-09-03T16:13:46;27.60;95.50
4356;DHT22;2191;51.482;7.408;2022-09-03T16:16:30;27.70;95.60
4356;DHT22;2191;51.482;7.408;2022-09-03T16:19:14;27.60;95.60
4356;DHT22;2191;51.482;7.408;2022-09-03T16:21:56;27.70;95.80
4356;DHT22;2191;51.482;7.408;2022-09-03T16:24:30;27.70;96.00
4356;DHT22;2191;51.482;7.408;2022-09-03T16:27:06;27.60;95.50
4356;DHT22;2191;51.482;7.408;2022-09-03T16:29:39;27.50;95.60
4356;DHT22;2191;51.482;7.408;2022-09-03T16:32:22;27.50;95.40
4356;DHT22;2191;51.482;7.408;2022-09-03T16:35:19;27.50;96.20
4356;DHT22;2191;51.482;7.408;2022-09-03T16:40:42;27.50;95.50
4356;DHT22;2191;51.482;7.408;2022-09-03T16:43:22;27.50;95.90
4356;DHT22;2191;51.482;7.408;2022-09-03T16:46:17;27.40;95.50
4356;DHT22;2191;51.482;7.408;2022-09-03T16:48:57;27.30;96.20
4356;DHT22;2191;51.482;7.408;2022-09-03T16:51:38;27.30;96.10
4356;DHT22;2191;51.482;7.408;2022-09-03T16:54:18;27.30;96.00
4356;DHT22;2191;51.482;7.408;2022-09-03T16:57:05;27.20;96.10
4356;DHT22;2191;51.482;7.408;2022-09-03T16:59:59;27.10;96.40
4356;DHT22;2191;51.482;7.408;2022-09-03T17:02:53;27.10;97.10
4356;DHT22;2191;51.482;7.408;2022-09-03T17:05:59;27.10;97.00
4356;DHT22;2191;51.482;7.408;2022-09-03T17:08:42;27.10;97.20
4356;DHT22;2191;51.482;7.408;2022-09-03T17:11:31;27.10;96.70
4356;DHT22;2191;51.482;7.408;2022-09-03T17:14:24;27.00;97.00
4356;DHT22;2191;51.482;7.408;2022-09-03T17:17:00;27.10;97.50